createdAt,value
2018-02-14T00:00:33.083Z,24.10
2018-02-14T00:03:00.772Z,27.93
2018-02-14T00:05:28.400Z,21.33
2018-02-14T00:07:55.977Z,18.23
2018-02-14T00:10:23.560Z,21.17
2018-02-14T00:12:51.186Z,23.07
2018-02-14T00:15:18.771Z,20.23
2018-02-14T00:17:46.334Z,20.73
2018-02-14T00:20:13.954Z,21.77
2018-02-14T00:22:41.527Z,23.50
2018-02-14T00:25:09.160Z,21.87
2018-02-14T00:27:36.805Z,19.77
2018-02-14T00:30:04.370Z,20.33
2018-02-14T00:32:31.938Z,27.43
2018-02-14T00:34:59.497Z,24.53
2018-02-14T00:37:27.186Z,29.13
2018-02-14T00:39:54.815Z,40.40
2018-02-14T00:42:22.377Z,36.03
2018-02-14T00:44:49.950Z,31.47
2018-02-14T00:47:17.573Z,32.70
2018-02-14T00:49:45.212Z,28.27
2018-02-14T00:52:12.769Z,29.47
2018-02-14T00:54:40.446Z,25.90
2018-02-14T00:57:08.005Z,26.20
2018-02-14T00:59:35.635Z,26.77
2018-02-14T01:02:03.192Z,25.00
2018-02-14T01:04:30.830Z,29.17
2018-02-14T01:06:58.466Z,33.20
2018-02-14T01:09:26.102Z,28.67
2018-02-14T01:11:53.786Z,34.23
2018-02-14T01:14:21.362Z,27.07
2018-02-14T01:16:48.923Z,27.57
2018-02-14T01:19:17.331Z,24.97
2018-02-14T01:21:50.903Z,26.33
2018-02-14T01:24:18.534Z,36.27
2018-02-14T01:26:46.113Z,37.43
2018-02-14T01:29:13.734Z,33.53
2018-02-14T01:31:41.308Z,34.53
2018-02-14T01:34:08.878Z,45.70
2018-02-14T01:36:36.518Z,49.17
2018-02-14T01:39:04.154Z,49.63
2018-02-14T01:41:31.782Z,43.43
2018-02-14T01:43:59.350Z,50.47
2018-02-14T01:46:26.974Z,47.83
2018-02-14T01:48:54.623Z,44.03
2018-02-14T01:51:22.175Z,45.10
2018-02-14T01:53:49.746Z,45.10
2018-02-14T01:56:17.306Z,40.27
2018-02-14T01:58:44.877Z,65.13
2018-02-14T02:01:12.456Z,46.27
2018-02-14T02:03:40.135Z,41.70
2018-02-14T02:06:07.697Z,38.17
2018-02-14T02:08:35.325Z,45.33
2018-02-14T02:11:02.962Z,39.60
2018-02-14T02:13:30.526Z,47.20
2018-02-14T02:15:58.098Z,46.90
2018-02-14T02:18:25.647Z,67.37
2018-02-14T02:20:53.283Z,91.30
2018-02-14T02:23:20.917Z,82.53
2018-02-14T02:25:48.468Z,108.67
2018-02-14T02:28:16.039Z,68.47
2018-02-14T02:30:43.673Z,40.20
2018-02-14T02:33:11.228Z,29.80
2018-02-14T02:35:38.843Z,34.37
2018-02-14T02:38:06.469Z,36.80
2018-02-14T02:40:34.187Z,26.97
2018-02-14T02:43:01.763Z,28.03
2018-02-14T02:45:29.403Z,34.33
2018-02-14T02:47:56.965Z,35.30
2018-02-14T02:50:24.548Z,53.60
2018-02-14T02:52:52.126Z,54.90
2018-02-14T02:55:19.826Z,43.53
2018-02-14T02:57:47.385Z,42.67
2018-02-14T03:00:15.039Z,43.77
2018-02-14T03:02:42.587Z,38.10
2018-02-14T03:05:10.210Z,40.10
2018-02-14T03:07:38.018Z,42.03
2018-02-14T03:10:05.595Z,46.97
2018-02-14T03:12:33.228Z,54.20
2018-02-14T03:15:00.850Z,50.63
2018-02-14T03:17:28.472Z,69.77
2018-02-14T03:19:56.038Z,67.13
2018-02-14T03:22:23.606Z,63.60
2018-02-14T03:24:51.246Z,60.60
2018-02-14T03:27:18.806Z,58.67
2018-02-14T03:29:46.431Z,53.73
2018-02-14T03:32:13.991Z,55.63
2018-02-14T03:34:41.545Z,57.50
2018-02-14T03:37:09.169Z,59.63
2018-02-14T03:39:36.799Z,52.30
2018-02-14T03:42:04.370Z,68.47
2018-02-14T03:44:31.928Z,69.40
2018-02-14T03:46:59.486Z,67.40
2018-02-14T03:49:27.035Z,81.07
2018-02-14T03:51:54.602Z,70.43
2018-02-14T03:54:22.177Z,57.43
2018-02-14T03:56:49.795Z,57.70
2018-02-14T03:59:17.416Z,55.57
2018-02-14T04:01:44.993Z,62.10
2018-02-14T04:04:12.543Z,55.73
2018-02-14T04:06:40.171Z,64.17
2018-02-14T04:09:07.790Z,57.37
2018-02-14T04:11:35.464Z,56.60
2018-02-14T04:14:03.028Z,55.60
2018-02-14T04:16:30.597Z,66.23
2018-02-14T04:18:58.233Z,60.10
2018-02-14T04:21:25.803Z,72.40
2018-02-14T04:23:53.474Z,65.57
2018-02-14T04:26:21.078Z,42.60
2018-02-14T04:28:48.642Z,53.53
2018-02-14T04:31:16.276Z,42.90
2018-02-14T04:33:43.834Z,43.77
2018-02-14T04:36:11.462Z,49.07
2018-02-14T04:38:39.012Z,40.57
2018-02-14T04:41:06.623Z,36.23
2018-02-14T04:43:34.198Z,31.23
2018-02-14T04:46:01.766Z,25.97
2018-02-14T04:48:29.396Z,37.03
2018-02-14T04:50:57.019Z,39.40
2018-02-14T04:53:24.690Z,40.43
2018-02-14T04:55:52.295Z,49.37
2018-02-14T04:58:19.889Z,50.07
2018-02-14T05:00:47.472Z,59.60
2018-02-14T05:03:15.030Z,64.10
2018-02-14T05:05:42.676Z,60.60
2018-02-14T05:08:10.239Z,53.63
2018-02-14T05:10:37.898Z,46.47
2018-02-14T05:13:05.461Z,48.77
2018-02-14T05:15:33.025Z,44.00
2018-02-14T05:18:00.607Z,44.13
2018-02-14T05:20:28.231Z,49.33
2018-02-14T05:22:55.956Z,38.40
2018-02-14T05:25:23.583Z,40.30
2018-02-14T05:27:51.153Z,49.13
2018-02-14T05:30:18.811Z,48.33
2018-02-14T05:32:46.362Z,68.20
2018-02-14T05:35:14.079Z,65.87
2018-02-14T05:37:41.638Z,82.27
2018-02-14T05:40:09.198Z,60.93
2018-02-14T05:42:36.766Z,80.23
2018-02-14T05:45:04.331Z,69.37
2018-02-14T05:47:31.942Z,86.93
2018-02-14T05:49:59.516Z,88.03
2018-02-14T05:52:27.088Z,93.30
2018-02-14T05:54:54.727Z,110.07
2018-02-14T05:57:22.290Z,149.60
2018-02-14T05:59:49.862Z,144.37
2018-02-14T06:02:17.433Z,165.23
2018-02-14T06:04:45.062Z,127.37
2018-02-14T06:07:12.682Z,130.30
2018-02-14T06:09:40.306Z,139.70
2018-02-14T06:12:07.873Z,128.33
2018-02-14T06:14:35.434Z,152.23
2018-02-14T06:17:03.070Z,144.83
2018-02-14T06:19:30.652Z,160.30
2018-02-14T06:21:58.288Z,204.07
2018-02-14T06:24:25.953Z,157.97
2018-02-14T06:26:53.514Z,159.87
2018-02-14T06:29:21.085Z,127.47
2018-02-14T06:31:48.654Z,240.87
2018-02-14T06:34:16.234Z,206.87
2018-02-14T06:36:43.846Z,193.40
2018-02-14T06:39:11.527Z,169.70
2018-02-14T06:41:39.093Z,187.70
2018-02-14T06:44:06.690Z,172.20
2018-02-14T06:46:34.326Z,143.90
2018-02-14T06:49:01.956Z,161.53
2018-02-14T06:51:29.526Z,171.17
2018-02-14T06:53:57.131Z,176.13
2018-02-14T06:56:24.706Z,135.03
2018-02-14T06:58:52.286Z,120.50
2018-02-14T07:01:19.902Z,125.57
2018-02-14T07:03:47.532Z,98.20
2018-02-14T07:06:15.094Z,93.17
2018-02-14T07:08:42.673Z,102.33
2018-02-14T07:11:10.250Z,85.63
2018-02-14T07:13:37.809Z,56.87
2018-02-14T07:16:05.371Z,75.90
2018-02-14T07:18:33.042Z,75.33
2018-02-14T07:21:00.608Z,57.37
2018-02-14T07:23:30.971Z,52.70
2018-02-14T07:25:58.552Z,55.97
2018-02-14T07:28:26.170Z,52.13
2018-02-14T07:30:53.740Z,35.60
2018-02-14T07:33:21.299Z,45.83
2018-02-14T07:35:48.921Z,38.20
2018-02-14T07:38:16.482Z,46.33
2018-02-14T07:40:44.132Z,46.27
2018-02-14T07:43:11.744Z,39.80
2018-02-14T07:45:39.362Z,40.80
2018-02-14T07:48:06.952Z,56.53
2018-02-14T07:50:34.511Z,47.23
2018-02-14T07:53:02.140Z,52.90
2018-02-14T07:55:29.762Z,57.83
2018-02-14T07:57:57.378Z,56.43
2018-02-14T08:00:24.987Z,52.90
2018-02-14T08:02:52.590Z,50.80
2018-02-14T08:05:20.157Z,61.80
2018-02-14T08:07:47.714Z,51.33
2018-02-14T08:10:15.403Z,65.57
2018-02-14T08:12:43.039Z,83.10
2018-02-14T08:15:10.681Z,74.53
2018-02-14T08:17:38.362Z,72.30
2018-02-14T08:20:05.930Z,91.55
2018-02-14T08:22:33.515Z,79.33
2018-02-14T08:25:01.095Z,88.63
2018-02-14T08:27:28.778Z,65.20
2018-02-14T08:29:56.363Z,71.17
2018-02-14T08:32:24.022Z,109.53
2018-02-14T08:34:51.663Z,88.03
2018-02-14T08:37:19.287Z,89.00
2018-02-14T08:39:46.858Z,68.73
2018-02-14T08:42:14.461Z,67.10
2018-02-14T08:44:42.071Z,64.03
2018-02-14T08:47:09.706Z,38.20
2018-02-14T08:49:37.334Z,39.77
2018-02-14T08:52:04.962Z,35.97
2018-02-14T08:54:32.536Z,33.80
2018-02-14T08:57:00.114Z,18.37
2018-02-14T08:59:27.694Z,20.70
2018-02-14T09:01:55.346Z,20.53
2018-02-14T09:04:22.910Z,21.97
2018-02-14T09:06:50.544Z,23.37
2018-02-14T09:09:18.115Z,26.60
2018-02-14T09:11:45.747Z,19.90
2018-02-14T09:14:13.323Z,21.30
2018-02-14T09:16:40.897Z,18.57
2018-02-14T09:19:08.587Z,22.13
2018-02-14T09:21:36.146Z,14.90
2018-02-14T09:24:03.713Z,24.00
2018-02-14T09:26:31.353Z,17.50
2018-02-14T09:28:58.974Z,13.40
2018-02-14T09:31:26.546Z,26.40
2018-02-14T09:33:54.116Z,24.03
2018-02-14T09:36:21.797Z,16.57
2018-02-14T09:38:49.415Z,14.60
2018-02-14T09:41:17.037Z,18.17
2018-02-14T09:43:44.658Z,13.87
2018-02-14T09:46:12.273Z,22.10
2018-02-14T09:48:39.902Z,16.53
2018-02-14T09:51:07.457Z,11.60
2018-02-14T09:53:35.073Z,17.60
2018-02-14T09:56:02.632Z,14.20
2018-02-14T09:58:30.193Z,12.33
2018-02-14T10:00:57.782Z,18.93
2018-02-14T10:03:25.398Z,16.03
2018-02-14T10:05:53.041Z,49.73
2018-02-14T10:08:20.604Z,34.13
2018-02-14T10:10:49.081Z,16.53
2018-02-14T10:13:16.642Z,14.30
2018-02-14T10:15:44.207Z,17.97
2018-02-14T10:18:11.844Z,31.03
2018-02-14T10:20:39.409Z,10.27
2018-02-14T10:23:06.988Z,39.60
2018-02-14T10:25:34.593Z,20.87
2018-02-14T10:28:02.196Z,8.30
2018-02-14T10:30:29.772Z,11.87
2018-02-14T10:32:57.385Z,8.43
2018-02-14T10:35:24.950Z,15.20
2018-02-14T10:37:52.611Z,13.60
2018-02-14T10:40:20.303Z,18.07
2018-02-14T10:42:47.843Z,22.70
2018-02-14T10:45:15.556Z,10.60
2018-02-14T10:47:43.164Z,10.53
2018-02-14T10:50:10.760Z,7.97
2018-02-14T10:52:38.336Z,11.57
2018-02-14T10:55:05.911Z,14.97
2018-02-14T10:57:33.478Z,12.90
2018-02-14T11:00:01.091Z,14.03
2018-02-14T11:05:32.931Z,16.50
2018-02-14T11:08:00.537Z,9.40
2018-02-14T11:10:28.107Z,8.47
2018-02-14T11:12:55.672Z,8.37
2018-02-14T11:15:23.300Z,7.87
2018-02-14T11:17:50.866Z,5.90
2018-02-14T11:20:18.486Z,10.30
2018-02-14T11:22:46.043Z,12.10
2018-02-14T11:25:13.720Z,15.70
2018-02-14T11:27:41.286Z,12.87
2018-02-14T11:30:08.942Z,17.33
2018-02-14T11:32:36.512Z,9.10
2018-02-14T11:35:04.126Z,6.80
2018-02-14T11:37:31.691Z,8.53
2018-02-14T11:39:59.336Z,13.97
2018-02-14T11:42:27.016Z,8.60
2018-02-14T11:44:54.578Z,13.33
2018-02-14T11:47:22.164Z,10.13
2018-02-14T11:49:49.799Z,10.77
2018-02-14T11:52:17.354Z,10.63
2018-02-14T11:54:45.019Z,17.40
2018-02-14T11:57:12.574Z,18.40
2018-02-14T11:59:40.335Z,12.60
2018-02-14T12:02:07.888Z,8.13
2018-02-14T12:04:35.455Z,15.13
2018-02-14T12:07:03.091Z,13.50
2018-02-14T12:09:30.646Z,4.20
2018-02-14T12:11:58.268Z,4.80
2018-02-14T12:14:25.900Z,6.40
2018-02-14T12:16:53.578Z,14.37
2018-02-14T12:19:21.139Z,19.07
2018-02-14T12:21:48.704Z,13.93
2018-02-14T12:24:16.334Z,24.87
2018-02-14T12:26:43.890Z,16.97
2018-02-14T12:29:11.514Z,23.87
2018-02-14T12:31:39.089Z,17.83
2018-02-14T12:34:06.712Z,41.30
2018-02-14T12:36:34.279Z,10.50
2018-02-14T12:39:01.905Z,24.00
2018-02-14T12:41:29.536Z,13.47
2018-02-14T12:43:57.098Z,20.27
2018-02-14T12:46:24.731Z,14.43
2018-02-14T12:48:52.295Z,14.03
2018-02-14T12:51:19.908Z,29.50
2018-02-14T12:53:47.563Z,6.43
2018-02-14T12:56:15.178Z,7.73
2018-02-14T12:58:42.821Z,11.20
2018-02-14T13:01:10.390Z,10.97
2018-02-14T13:03:38.077Z,21.67
2018-02-14T13:06:05.638Z,14.20
2018-02-14T13:08:33.183Z,19.53
2018-02-14T13:11:00.815Z,11.80
2018-02-14T13:13:28.387Z,12.60
2018-02-14T13:15:55.984Z,21.97
2018-02-14T13:18:23.540Z,6.80
2018-02-14T13:20:51.178Z,24.47
2018-02-14T13:23:18.762Z,58.13
2018-02-14T13:25:46.390Z,20.27
2018-02-14T13:28:13.954Z,13.77
2018-02-14T13:30:41.570Z,6.70
2018-02-14T13:33:09.150Z,9.10
2018-02-14T13:35:36.726Z,26.87
2018-02-14T13:38:04.401Z,11.50
2018-02-14T13:40:34.490Z,11.10
2018-02-14T13:43:02.058Z,8.53
2018-02-14T13:45:29.747Z,13.53
2018-02-14T13:47:59.697Z,26.23
2018-02-14T13:50:27.342Z,20.73
2018-02-14T13:52:54.947Z,21.53
2018-02-14T13:55:22.510Z,12.13
2018-02-14T13:57:50.070Z,25.40
2018-02-14T14:00:17.647Z,31.03
2018-02-14T14:02:45.223Z,12.03
2018-02-14T14:05:12.813Z,15.63
2018-02-14T14:07:40.362Z,11.70
2018-02-14T14:10:08.038Z,10.80
2018-02-14T14:12:35.659Z,23.33
2018-02-14T14:15:03.233Z,22.57
2018-02-14T14:17:30.796Z,23.50
2018-02-14T14:19:58.351Z,9.87
2018-02-14T14:22:25.982Z,22.70
2018-02-14T14:24:53.546Z,18.00
2018-02-14T14:27:21.186Z,10.57
2018-02-14T14:29:49.758Z,22.13
2018-02-14T14:32:17.378Z,21.37
2018-02-14T14:34:45.704Z,26.57
2018-02-14T14:37:14.192Z,33.63
2018-02-14T14:39:41.780Z,27.60
2018-02-14T14:42:09.952Z,19.10
2018-02-14T14:44:37.573Z,24.83
2018-02-14T14:47:06.166Z,11.93
2018-02-14T14:49:33.740Z,28.30
2018-02-14T14:52:01.321Z,14.23
2018-02-14T14:54:30.666Z,20.93
2018-02-14T14:56:58.243Z,27.13
2018-02-14T14:59:25.867Z,19.97
2018-02-14T15:01:53.433Z,36.97
2018-02-14T15:04:21.001Z,23.93
2018-02-14T15:06:48.562Z,18.90
2018-02-14T15:09:16.196Z,22.70
2018-02-14T15:11:43.767Z,24.23
2018-02-14T15:14:11.390Z,25.73
2018-02-14T15:16:38.965Z,22.60
2018-02-14T15:19:06.534Z,19.93
2018-02-14T15:21:34.162Z,22.77
2018-02-14T15:24:01.729Z,33.00
2018-02-14T15:26:29.346Z,21.20
2018-02-14T15:28:56.914Z,28.37
2018-02-14T15:31:25.746Z,20.10
2018-02-14T15:33:53.317Z,16.37
2018-02-14T15:36:20.874Z,36.03
2018-02-14T15:38:48.441Z,21.37
2018-02-14T15:41:16.044Z,14.50
2018-02-14T15:43:43.726Z,19.53
2018-02-14T15:46:11.384Z,21.70
2018-02-14T15:48:38.954Z,29.13
2018-02-14T15:51:06.587Z,16.93
2018-02-14T15:53:34.163Z,26.20
2018-02-14T15:56:01.738Z,17.43
2018-02-14T15:58:29.369Z,21.27
2018-02-14T16:00:56.990Z,61.43
2018-02-14T16:03:24.622Z,37.57
2018-02-14T16:05:52.186Z,25.97
2018-02-14T16:08:19.754Z,23.97
2018-02-14T16:10:47.332Z,28.73
2018-02-14T16:13:15.011Z,17.60
2018-02-14T16:15:42.634Z,28.20
2018-02-14T16:18:10.347Z,23.40
2018-02-14T16:20:37.933Z,30.17
2018-02-14T16:23:05.517Z,30.97
2018-02-14T16:25:33.108Z,34.03
2018-02-14T16:28:00.701Z,29.30
2018-02-14T16:30:28.340Z,30.83
2018-02-14T16:32:55.898Z,25.47
2018-02-14T16:35:23.556Z,40.83
2018-02-14T16:37:51.129Z,36.67
2018-02-14T16:40:18.750Z,55.67
2018-02-14T16:42:46.320Z,31.53
2018-02-14T16:45:13.886Z,36.57
2018-02-14T16:47:41.523Z,27.60
2018-02-14T16:50:09.162Z,37.03
2018-02-14T16:52:36.808Z,38.00
2018-02-14T16:55:04.388Z,31.20
2018-02-14T16:57:32.030Z,35.83
2018-02-14T17:00:00.023Z,38.27
2018-02-14T17:02:27.668Z,40.87
2018-02-14T17:04:55.245Z,28.57
2018-02-14T17:07:22.811Z,47.83
2018-02-14T17:09:50.431Z,29.20
2018-02-14T17:12:18.052Z,25.17
2018-02-14T17:14:45.619Z,43.07
2018-02-14T17:17:13.198Z,42.30
2018-02-14T17:19:40.776Z,110.57
2018-02-14T17:22:08.359Z,31.87
2018-02-14T17:24:35.923Z,51.80
2018-02-14T17:27:03.597Z,51.83
2018-02-14T17:29:31.165Z,51.47
2018-02-14T17:31:58.742Z,34.10
2018-02-14T17:34:26.322Z,39.30
2018-02-14T17:36:53.884Z,34.37
2018-02-14T17:39:21.463Z,62.90
2018-02-14T17:41:49.048Z,38.87
2018-02-14T17:44:16.723Z,32.17
2018-02-14T17:46:44.359Z,71.30
2018-02-14T17:49:11.903Z,47.33
2018-02-14T17:51:39.519Z,44.70
2018-02-14T17:54:07.105Z,43.23
2018-02-14T17:56:34.686Z,36.03
2018-02-14T17:59:02.260Z,72.33
2018-02-14T18:01:29.917Z,37.40
2018-02-14T18:03:57.553Z,27.13
2018-02-14T18:06:25.175Z,32.80
2018-02-14T18:08:52.810Z,42.00
2018-02-14T18:11:20.392Z,51.20
2018-02-14T18:13:47.982Z,22.67
2018-02-14T18:16:15.555Z,34.80
2018-02-14T18:18:44.290Z,33.10
2018-02-14T18:21:11.860Z,23.43
2018-02-14T18:23:39.434Z,30.70
2018-02-14T18:26:07.006Z,50.70
2018-02-14T18:28:34.574Z,57.10
2018-02-14T18:31:02.197Z,29.03
2018-02-14T18:33:29.757Z,59.57
2018-02-14T18:35:57.426Z,41.87
2018-02-14T18:38:25.053Z,39.23
2018-02-14T18:40:52.670Z,44.87
2018-02-14T18:43:20.251Z,43.00
2018-02-14T18:45:47.814Z,49.77
2018-02-14T18:48:15.446Z,52.90
2018-02-14T18:50:43.074Z,47.00
2018-02-14T18:53:10.732Z,33.37
2018-02-14T18:55:38.291Z,45.13
2018-02-14T18:58:05.906Z,47.83
2018-02-14T19:00:33.550Z,41.63
2018-02-14T19:03:01.130Z,31.90
2018-02-14T19:05:28.702Z,45.60
2018-02-14T19:07:56.330Z,32.93
2018-02-14T19:10:24.018Z,47.60
2018-02-14T19:12:51.592Z,62.20
2018-02-14T19:15:19.169Z,30.87
2018-02-14T19:17:46.740Z,21.93
2018-02-14T19:20:14.311Z,30.70
2018-02-14T19:22:41.982Z,48.60
2018-02-14T19:25:09.555Z,34.73
2018-02-14T19:27:37.254Z,18.07
2018-02-14T19:30:04.862Z,25.40
2018-02-14T19:32:32.435Z,21.43
2018-02-14T19:35:00.017Z,41.00
2018-02-14T19:37:27.582Z,30.07
2018-02-14T19:39:55.263Z,25.13
2018-02-14T19:42:22.896Z,28.27
2018-02-14T19:44:50.465Z,31.37
2018-02-14T19:47:18.056Z,30.37
2018-02-14T19:49:45.622Z,29.40
2018-02-14T19:52:13.244Z,31.13
2018-02-14T19:54:40.878Z,30.30
2018-02-14T19:57:08.450Z,35.93
2018-02-14T19:59:36.085Z,41.73
2018-02-14T20:02:03.714Z,40.33
2018-02-14T20:04:31.395Z,40.43
2018-02-14T20:06:58.968Z,39.77
2018-02-14T20:09:26.622Z,43.43
2018-02-14T20:11:54.266Z,52.63
2018-02-14T20:14:21.816Z,52.70
2018-02-14T20:16:49.503Z,52.33
2018-02-14T20:19:17.048Z,55.17
2018-02-14T20:21:44.609Z,58.03
2018-02-14T20:24:12.200Z,49.77
2018-02-14T20:26:39.801Z,43.90
2018-02-14T20:29:07.438Z,47.73
2018-02-14T20:31:35.059Z,28.93
2018-02-14T20:34:02.617Z,26.53
2018-02-14T20:36:30.186Z,32.30
2018-02-14T20:38:57.750Z,33.40
2018-02-14T20:41:25.366Z,25.33
2018-02-14T20:43:52.990Z,25.47
2018-02-14T20:46:20.622Z,23.73
2018-02-14T20:48:48.294Z,31.90
2018-02-14T20:51:15.864Z,30.33
2018-02-14T20:53:43.442Z,28.00
2018-02-14T20:56:11.006Z,25.20
2018-02-14T20:58:38.622Z,32.00
2018-02-14T21:01:06.190Z,41.53
2018-02-14T21:03:33.754Z,37.93
2018-02-14T21:06:01.323Z,24.67
2018-02-14T21:08:28.942Z,31.93
2018-02-14T21:10:56.497Z,25.43
2018-02-14T21:13:24.064Z,21.50
2018-02-14T21:15:51.677Z,19.50
2018-02-14T21:18:19.253Z,20.27
2018-02-14T21:20:46.868Z,19.60
2018-02-14T21:23:14.447Z,22.70
2018-02-14T21:25:42.059Z,26.33
2018-02-14T21:28:09.639Z,20.80
2018-02-14T21:30:37.330Z,23.80
2018-02-14T21:33:04.968Z,20.90
2018-02-14T21:35:32.586Z,26.30
2018-02-14T21:38:01.071Z,24.23
2018-02-14T21:40:28.644Z,21.77
2018-02-14T21:42:56.207Z,20.53
2018-02-14T21:45:23.785Z,22.20
2018-02-14T21:47:51.359Z,27.20
2018-02-14T21:50:18.970Z,24.47
2018-02-14T21:52:46.534Z,22.30
2018-02-14T21:55:14.172Z,20.50
2018-02-14T21:57:41.811Z,22.33
2018-02-14T22:00:09.391Z,21.30
2018-02-14T22:02:36.971Z,25.80
2018-02-14T22:05:04.534Z,20.90
2018-02-14T22:07:32.158Z,23.90
2018-02-14T22:09:59.715Z,18.73
2018-02-14T22:12:27.277Z,19.53
2018-02-14T22:14:54.846Z,18.40
2018-02-14T22:17:22.463Z,16.20
2018-02-14T22:19:50.145Z,17.77
2018-02-14T22:22:17.777Z,18.50
2018-02-14T22:24:45.469Z,17.20
2018-02-14T22:27:13.128Z,16.10
2018-02-14T22:29:40.700Z,14.90
2018-02-14T22:32:08.327Z,17.30
2018-02-14T22:34:35.894Z,14.80
2018-02-14T22:37:03.478Z,16.50
2018-02-14T22:39:31.050Z,14.80
2018-02-14T22:41:58.673Z,13.97
2018-02-14T22:44:26.244Z,14.30
2018-02-14T22:46:53.862Z,14.10
2018-02-14T22:49:21.486Z,16.30
2018-02-14T22:51:49.042Z,14.40
2018-02-14T22:54:16.605Z,12.27
2018-02-14T22:56:44.227Z,14.60
2018-02-14T22:59:11.847Z,9.93
2018-02-14T23:01:39.465Z,11.17
2018-02-14T23:04:07.092Z,10.80
2018-02-14T23:06:34.664Z,12.70
2018-02-14T23:09:02.228Z,12.57
2018-02-14T23:11:29.859Z,16.37
2018-02-14T23:13:57.414Z,13.13
2018-02-14T23:16:25.092Z,14.63
2018-02-14T23:18:52.646Z,12.00
2018-02-14T23:21:20.206Z,11.63
2018-02-14T23:23:47.788Z,14.27
2018-02-14T23:26:15.417Z,13.70
2018-02-14T23:28:42.986Z,14.07
2018-02-14T23:31:10.570Z,14.27
2018-02-14T23:33:38.246Z,15.43
2018-02-14T23:36:05.867Z,12.90
2018-02-14T23:38:33.429Z,17.63
2018-02-14T23:41:01.038Z,25.43
2018-02-14T23:43:28.598Z,19.63
2018-02-14T23:45:56.279Z,23.17
2018-02-14T23:48:23.837Z,19.27
2018-02-14T23:50:51.460Z,24.10
2018-02-14T23:53:19.089Z,20.50
2018-02-14T23:55:46.721Z,18.47
2018-02-14T23:58:14.330Z,18.40
